createdAt,value
2022-11-13T00:01:21.887Z,49.50
2022-11-13T00:03:48.996Z,49.20
2022-11-13T00:06:17.070Z,49.40
2022-11-13T00:08:44.350Z,49.20
2022-11-13T00:11:18.565Z,49.30
2022-11-13T00:13:46.683Z,49.00
2022-11-13T00:16:16.535Z,49.80
2022-11-13T00:18:43.981Z,49.10
2022-11-13T00:21:25.089Z,49.00
2022-11-13T00:23:52.186Z,48.70
2022-11-13T00:26:30.498Z,48.90
2022-11-13T00:29:00.158Z,48.70
2022-11-13T00:31:27.891Z,48.80
2022-11-13T00:34:33.005Z,48.80
2022-11-13T00:36:41.966Z,49.00
2022-11-13T00:39:09.719Z,48.80
2022-11-13T00:41:36.558Z,48.60
2022-11-13T00:44:04.735Z,48.80
2022-11-13T00:46:31.796Z,48.50
2022-11-13T00:48:58.581Z,48.70
2022-11-13T00:51:25.409Z,48.60
2022-11-13T00:53:52.429Z,48.40
2022-11-13T00:56:19.265Z,48.40
2022-11-13T00:58:46.324Z,48.40
2022-11-13T01:01:16.355Z,48.30
2022-11-13T01:03:43.519Z,48.00
2022-11-13T01:06:12.249Z,48.20
2022-11-13T01:08:39.752Z,47.90
2022-11-13T01:11:15.114Z,48.30
2022-11-13T01:13:43.611Z,47.90
2022-11-13T01:16:12.442Z,48.10
2022-11-13T01:18:41.310Z,48.10
2022-11-13T01:21:12.176Z,48.00
2022-11-13T01:23:39.235Z,47.90
2022-11-13T01:26:16.009Z,48.50
2022-11-13T01:28:44.428Z,48.00
2022-11-13T01:31:17.905Z,48.00
2022-11-13T01:33:45.556Z,47.70
2022-11-13T01:36:15.320Z,47.90
2022-11-13T01:38:42.452Z,48.00
2022-11-13T01:41:23.357Z,47.90
2022-11-13T01:43:52.046Z,47.80
2022-11-13T01:46:52.361Z,47.90
2022-11-13T01:49:28.513Z,47.70
2022-11-13T01:51:57.675Z,47.50
2022-11-13T01:54:29.359Z,47.80
2022-11-13T01:56:57.690Z,47.50
2022-11-13T01:59:31.155Z,47.50
2022-11-13T02:01:58.766Z,47.40
2022-11-13T02:04:26.526Z,47.50
2022-11-13T02:06:57.789Z,47.40
2022-11-13T02:09:27.939Z,47.20
2022-11-13T02:11:55.744Z,47.20
2022-11-13T02:14:25.676Z,47.40
2022-11-13T02:16:57.177Z,47.50
2022-11-13T02:19:30.807Z,47.10
2022-11-13T02:22:34.381Z,46.90
2022-11-13T02:25:03.061Z,47.30
2022-11-13T02:27:44.451Z,47.30
2022-11-13T02:30:43.468Z,50.90
2022-11-13T02:33:40.162Z,48.50
2022-11-13T02:36:09.954Z,48.30
2022-11-13T02:38:38.662Z,48.10
2022-11-13T02:41:05.514Z,47.50
2022-11-13T02:43:32.581Z,51.10
2022-11-13T02:45:59.657Z,47.60
2022-11-13T02:48:26.834Z,47.30
2022-11-13T02:50:54.027Z,47.20
2022-11-13T02:53:20.997Z,47.10
2022-11-13T02:55:47.839Z,47.20
2022-11-13T02:58:14.732Z,47.30
2022-11-13T03:00:41.474Z,47.40
2022-11-13T03:03:08.244Z,47.40
2022-11-13T03:05:34.955Z,47.10
2022-11-13T03:08:01.699Z,47.10
2022-11-13T03:10:28.432Z,47.00
2022-11-13T03:12:55.154Z,47.10
2022-11-13T03:15:21.915Z,47.20
2022-11-13T03:17:48.691Z,46.90
2022-11-13T03:20:16.059Z,46.80
2022-11-13T03:22:42.866Z,46.80
2022-11-13T03:25:10.925Z,46.70
2022-11-13T03:27:38.199Z,46.60
2022-11-13T03:30:06.237Z,46.80
2022-11-13T03:32:32.971Z,46.60
2022-11-13T03:34:59.707Z,46.90
2022-11-13T03:37:26.438Z,46.70
2022-11-13T03:39:53.216Z,46.60
2022-11-13T03:42:20.084Z,46.50
2022-11-13T03:44:46.789Z,46.70
2022-11-13T03:47:13.679Z,46.60
2022-11-13T03:49:40.539Z,46.60
2022-11-13T03:52:07.271Z,46.60
2022-11-13T03:54:34.211Z,46.70
2022-11-13T03:57:00.970Z,46.70
2022-11-13T03:59:27.773Z,46.80
2022-11-13T04:01:54.538Z,46.70
2022-11-13T04:04:21.321Z,46.70
2022-11-13T04:06:49.167Z,46.60
2022-11-13T04:09:15.927Z,46.60
2022-11-13T04:11:42.591Z,47.00
2022-11-13T04:14:09.395Z,47.60
2022-11-13T04:16:36.202Z,47.80
2022-11-13T04:19:03.093Z,47.90
2022-11-13T04:21:29.843Z,47.70
2022-11-13T04:23:56.565Z,47.70
2022-11-13T04:26:23.299Z,47.70
2022-11-13T04:28:50.123Z,47.60
2022-11-13T04:31:16.834Z,47.60
2022-11-13T04:33:43.505Z,47.20
2022-11-13T04:36:10.342Z,47.20
2022-11-13T04:38:37.071Z,47.00
2022-11-13T04:41:22.455Z,47.00
2022-11-13T04:43:49.196Z,47.10
2022-11-13T04:46:16.144Z,47.40
2022-11-13T04:48:42.975Z,47.10
2022-11-13T04:51:09.701Z,47.00
2022-11-13T04:53:36.562Z,47.00
2022-11-13T04:56:03.453Z,47.10
2022-11-13T04:58:30.499Z,47.10
2022-11-13T05:00:57.524Z,47.00
2022-11-13T05:03:24.207Z,47.00
2022-11-13T05:05:51.013Z,46.80
2022-11-13T05:08:17.727Z,47.00
2022-11-13T05:10:44.484Z,46.70
2022-11-13T05:13:11.230Z,46.60
2022-11-13T05:15:38.029Z,46.50
2022-11-13T05:18:04.704Z,46.50
2022-11-13T05:20:31.368Z,46.60
2022-11-13T05:22:58.199Z,46.30
2022-11-13T05:25:25.089Z,46.30
2022-11-13T05:27:51.841Z,46.10
2022-11-13T05:30:18.547Z,46.20
2022-11-13T05:32:45.326Z,46.20
2022-11-13T05:35:12.189Z,45.90
2022-11-13T05:37:38.921Z,45.80
2022-11-13T05:40:06.529Z,45.90
2022-11-13T05:42:33.269Z,45.60
2022-11-13T05:44:59.957Z,46.00
2022-11-13T05:47:26.816Z,45.80
2022-11-13T05:49:53.541Z,45.70
2022-11-13T05:52:20.390Z,45.40
2022-11-13T05:54:47.158Z,45.40
2022-11-13T05:57:13.884Z,45.50
2022-11-13T05:59:40.537Z,45.70
2022-11-13T06:02:07.476Z,45.40
2022-11-13T06:04:34.312Z,45.40
2022-11-13T06:07:01.248Z,45.50
2022-11-13T06:09:28.040Z,45.40
2022-11-13T06:11:54.802Z,45.30
2022-11-13T06:14:21.451Z,45.20
2022-11-13T06:16:48.245Z,45.30
2022-11-13T06:19:14.903Z,44.90
2022-11-13T06:21:41.677Z,45.20
2022-11-13T06:24:11.448Z,45.00
2022-11-13T06:26:38.831Z,44.80
2022-11-13T06:29:06.994Z,45.00
2022-11-13T06:31:36.277Z,44.70
2022-11-13T06:34:06.620Z,44.90
2022-11-13T06:36:36.888Z,45.00
2022-11-13T06:39:07.685Z,44.70
2022-11-13T06:41:35.727Z,44.50
2022-11-13T06:44:03.603Z,44.30
2022-11-13T06:46:31.192Z,45.00
2022-11-13T06:48:58.364Z,45.60
2022-11-13T06:51:29.179Z,45.30
2022-11-13T06:53:56.905Z,45.10
2022-11-13T06:56:25.296Z,45.60
2022-11-13T06:58:53.445Z,45.30
2022-11-13T07:01:22.612Z,45.30
2022-11-13T07:03:50.493Z,45.50
2022-11-13T07:06:20.554Z,45.10
2022-11-13T07:08:48.209Z,45.30
2022-11-13T07:11:18.097Z,45.30
2022-11-13T07:13:45.325Z,45.20
2022-11-13T07:16:17.347Z,44.90
2022-11-13T07:18:54.607Z,44.80
2022-11-13T07:21:22.146Z,44.90
2022-11-13T07:23:49.820Z,44.70
2022-11-13T07:26:16.905Z,44.30
2022-11-13T07:28:43.917Z,44.60
2022-11-13T07:31:12.378Z,44.30
2022-11-13T07:33:39.139Z,42.40
2022-11-13T07:36:06.470Z,42.90
2022-11-13T07:38:33.107Z,43.60
2022-11-13T07:41:00.450Z,44.50
2022-11-13T07:43:27.615Z,45.50
2022-11-13T07:45:55.434Z,46.30
2022-11-13T07:48:24.468Z,46.80
2022-11-13T07:50:51.789Z,47.50
2022-11-13T07:53:19.479Z,48.20
2022-11-13T07:55:46.813Z,48.90
2022-11-13T07:58:15.235Z,49.70
2022-11-13T08:00:41.951Z,50.30
2022-11-13T08:03:13.955Z,50.70
2022-11-13T08:05:41.172Z,51.50
2022-11-13T08:08:08.707Z,52.00
2022-11-13T08:10:36.870Z,52.60
2022-11-13T08:13:06.033Z,53.40
2022-11-13T08:15:33.744Z,53.80
2022-11-13T08:18:02.600Z,54.30
2022-11-13T08:20:30.730Z,54.90
2022-11-13T08:22:58.697Z,55.50
2022-11-13T08:25:26.120Z,56.10
2022-11-13T08:27:54.169Z,56.70
2022-11-13T08:30:21.924Z,57.40
2022-11-13T08:32:49.265Z,57.70
2022-11-13T08:35:19.556Z,57.90
2022-11-13T08:37:47.389Z,58.10
2022-11-13T08:40:14.433Z,58.40
2022-11-13T08:42:43.135Z,58.60
2022-11-13T08:45:10.391Z,58.80
2022-11-13T08:47:37.653Z,58.80
2022-11-13T08:50:06.037Z,59.00
2022-11-13T08:52:32.729Z,59.10
2022-11-13T08:55:01.612Z,59.10
2022-11-13T08:57:28.365Z,59.30
2022-11-13T08:59:55.139Z,59.50
2022-11-13T09:02:21.842Z,59.60
2022-11-13T09:04:48.644Z,59.50
2022-11-13T09:07:15.399Z,59.50
2022-11-13T09:09:42.262Z,59.50
2022-11-13T09:12:09.050Z,59.50
2022-11-13T09:14:36.849Z,59.60
2022-11-13T09:17:03.882Z,60.00
2022-11-13T09:19:30.580Z,60.40
2022-11-13T09:21:57.374Z,60.00
2022-11-13T09:24:24.137Z,60.10
2022-11-13T09:26:51.003Z,59.60
2022-11-13T09:29:18.342Z,58.70
2022-11-13T09:31:45.244Z,57.80
2022-11-13T09:34:12.007Z,57.70
2022-11-13T09:36:38.708Z,58.30
2022-11-13T09:39:05.425Z,57.90
2022-11-13T09:41:50.271Z,57.90
2022-11-13T09:44:27.983Z,58.10
2022-11-13T09:47:12.402Z,58.20
2022-11-13T09:49:45.054Z,58.30
2022-11-13T09:52:17.003Z,58.60
2022-11-13T09:54:43.731Z,58.50
2022-11-13T09:57:26.456Z,59.00
2022-11-13T10:00:12.608Z,58.80
2022-11-13T10:03:12.861Z,59.10
2022-11-13T10:06:01.203Z,59.50
2022-11-13T10:08:38.969Z,59.50
2022-11-13T10:11:37.582Z,59.90
2022-11-13T10:14:21.375Z,60.10
2022-11-13T10:17:06.959Z,60.60
2022-11-13T10:19:41.071Z,60.50
2022-11-13T10:22:38.079Z,60.70
2022-11-13T10:25:13.990Z,60.70
2022-11-13T10:27:41.014Z,60.70
2022-11-13T10:30:16.096Z,61.10
2022-11-13T10:32:45.253Z,61.00
2022-11-13T10:35:42.125Z,61.00
2022-11-13T10:38:20.951Z,61.80
2022-11-13T10:40:47.936Z,61.80
2022-11-13T10:43:19.178Z,61.40
2022-11-13T10:45:57.841Z,61.10
2022-11-13T10:48:32.171Z,60.80
2022-11-13T10:51:02.349Z,61.40
2022-11-13T10:53:39.704Z,60.80
2022-11-13T10:56:29.686Z,60.60
2022-11-13T10:59:11.194Z,60.50
2022-11-13T11:01:38.960Z,60.60
2022-11-13T11:04:07.281Z,60.00
2022-11-13T11:07:17.957Z,59.60
2022-11-13T11:09:31.388Z,59.20
2022-11-13T11:12:19.080Z,57.50
2022-11-13T11:15:15.540Z,56.90
2022-11-13T11:17:59.388Z,55.60
2022-11-13T11:20:40.677Z,53.60
2022-11-13T11:23:44.722Z,52.40
2022-11-13T11:26:38.621Z,51.60
2022-11-13T11:29:30.531Z,50.50
2022-11-13T11:32:10.302Z,52.30
2022-11-13T11:34:49.134Z,51.80
2022-11-13T11:37:18.732Z,51.00
2022-11-13T11:40:21.907Z,51.80
2022-11-13T11:43:05.367Z,49.60
2022-11-13T11:45:44.988Z,49.00
2022-11-13T11:48:16.389Z,48.90
2022-11-13T11:50:54.973Z,50.00
2022-11-13T11:53:21.563Z,49.50
2022-11-13T11:56:20.221Z,54.30
2022-11-13T11:59:08.650Z,51.20
2022-11-13T12:02:00.375Z,53.00
2022-11-13T12:04:28.031Z,56.60
2022-11-13T12:07:16.491Z,51.50
2022-11-13T12:09:47.652Z,50.80
2022-11-13T12:12:19.829Z,58.10
2022-11-13T12:15:15.174Z,50.00
2022-11-13T12:18:05.078Z,50.10
2022-11-13T12:20:43.577Z,47.60
2022-11-13T12:23:19.188Z,47.70
2022-11-13T12:26:06.524Z,52.40
2022-11-13T12:28:55.033Z,49.50
2022-11-13T12:31:52.053Z,47.30
2022-11-13T12:34:43.410Z,48.70
2022-11-13T12:37:20.141Z,47.40
2022-11-13T12:40:00.778Z,48.20
2022-11-13T12:43:09.472Z,46.30
2022-11-13T12:45:39.220Z,47.80
2022-11-13T12:48:28.901Z,46.60
2022-11-13T12:51:10.918Z,46.90
2022-11-13T12:53:55.963Z,47.10
2022-11-13T12:56:28.350Z,46.00
2022-11-13T12:59:31.599Z,46.80
2022-11-13T13:02:09.927Z,46.80
2022-11-13T13:05:16.619Z,46.50
2022-11-13T13:08:08.603Z,47.90
2022-11-13T13:10:43.185Z,46.70
2022-11-13T13:13:39.662Z,46.60
2022-11-13T13:16:08.809Z,46.00
2022-11-13T13:18:40.496Z,46.90
2022-11-13T13:21:11.260Z,45.80
2022-11-13T13:23:48.298Z,46.30
2022-11-13T13:26:16.941Z,46.40
2022-11-13T13:28:47.266Z,46.00
2022-11-13T13:31:13.929Z,51.40
2022-11-13T13:34:08.465Z,47.10
2022-11-13T13:37:00.596Z,46.70
2022-11-13T13:39:49.154Z,46.40
2022-11-13T13:42:49.216Z,46.60
2022-11-13T13:45:23.817Z,46.60
2022-11-13T13:47:55.117Z,45.20
2022-11-13T13:50:45.134Z,44.90
2022-11-13T13:53:34.451Z,45.30
2022-11-13T13:56:03.826Z,44.60
2022-11-13T13:58:34.970Z,43.50
2022-11-13T14:01:18.323Z,44.20
2022-11-13T14:03:45.961Z,43.20
2022-11-13T14:06:24.266Z,44.30
2022-11-13T14:08:51.070Z,42.60
2022-11-13T14:11:27.209Z,42.70
2022-11-13T14:13:56.158Z,41.80
2022-11-13T14:16:22.843Z,41.90
2022-11-13T14:18:49.650Z,41.70
2022-11-13T14:21:23.386Z,42.30
2022-11-13T14:23:52.348Z,41.60
2022-11-13T14:26:20.327Z,41.40
2022-11-13T14:28:58.013Z,41.90
2022-11-13T14:31:30.665Z,42.00
2022-11-13T14:34:01.315Z,42.20
2022-11-13T14:36:31.484Z,42.00
2022-11-13T14:38:59.041Z,42.00
2022-11-13T14:41:35.282Z,42.30
2022-11-13T14:44:02.647Z,41.70
2022-11-13T14:46:38.080Z,42.00
2022-11-13T14:49:11.810Z,42.10
2022-11-13T14:51:40.163Z,41.70
2022-11-13T14:54:09.090Z,41.80
2022-11-13T14:56:43.576Z,42.50
2022-11-13T14:59:19.385Z,42.10
2022-11-13T15:01:57.284Z,42.00
2022-11-13T15:04:25.275Z,42.00
2022-11-13T15:06:55.707Z,42.30
2022-11-13T15:09:24.315Z,42.20
2022-11-13T15:11:51.534Z,42.10
2022-11-13T15:14:19.928Z,42.20
2022-11-13T15:16:48.404Z,42.80
2022-11-13T15:19:31.736Z,43.60
2022-11-13T15:24:45.038Z,46.20
2022-11-13T15:27:18.256Z,47.00
2022-11-13T15:29:45.177Z,48.40
2022-11-13T15:32:13.004Z,48.50
2022-11-13T15:34:39.744Z,48.20
2022-11-13T15:37:17.197Z,48.60
2022-11-13T15:39:44.116Z,49.20
2022-11-13T15:42:15.907Z,49.50
2022-11-13T15:44:42.678Z,49.70
2022-11-13T15:47:26.348Z,49.80
2022-11-13T15:50:12.435Z,50.00
2022-11-13T15:52:42.663Z,50.00
2022-11-13T15:55:35.827Z,50.30
2022-11-13T15:58:04.656Z,50.40
2022-11-13T16:00:32.650Z,50.20
2022-11-13T16:02:59.351Z,49.90
2022-11-13T16:05:29.290Z,49.80
2022-11-13T16:07:56.765Z,50.00
2022-11-13T16:10:27.206Z,49.80
2022-11-13T16:12:54.125Z,49.60
2022-11-13T16:15:21.603Z,49.50
2022-11-13T16:17:53.318Z,49.50
2022-11-13T16:20:22.136Z,49.70
2022-11-13T16:22:48.831Z,49.80
2022-11-13T16:25:26.825Z,49.90
2022-11-13T16:27:53.954Z,50.00
2022-11-13T16:30:31.198Z,50.00
2022-11-13T16:33:05.674Z,50.40
2022-11-13T16:35:32.373Z,50.90
2022-11-13T16:38:12.871Z,50.50
2022-11-13T16:40:42.888Z,50.40
2022-11-13T16:43:13.914Z,50.60
2022-11-13T16:45:40.622Z,50.30
2022-11-13T16:48:13.393Z,50.30
2022-11-13T16:50:40.986Z,49.90
2022-11-13T16:53:08.356Z,49.90
2022-11-13T16:55:38.239Z,50.10
2022-11-13T16:58:05.681Z,51.30
2022-11-13T17:00:32.382Z,51.90
2022-11-13T17:02:59.041Z,52.30
2022-11-13T17:05:27.796Z,52.40
2022-11-13T17:07:59.016Z,52.60
2022-11-13T17:10:32.051Z,52.60
2022-11-13T17:12:59.866Z,52.50
2022-11-13T17:15:34.122Z,52.30
2022-11-13T17:18:01.202Z,52.10
2022-11-13T17:20:31.509Z,52.10
2022-11-13T17:22:58.182Z,51.90
2022-11-13T17:25:26.799Z,51.90
2022-11-13T17:27:56.772Z,51.80
2022-11-13T17:30:23.763Z,51.80
2022-11-13T17:32:50.545Z,51.80
2022-11-13T17:35:17.246Z,51.50
2022-11-13T17:37:44.142Z,51.50
2022-11-13T17:40:11.654Z,51.60
2022-11-13T17:42:38.696Z,51.50
2022-11-13T17:45:05.900Z,51.60
2022-11-13T17:47:34.140Z,51.60
2022-11-13T17:50:06.672Z,51.50
2022-11-13T17:52:34.514Z,51.30
2022-11-13T17:55:06.211Z,51.00
2022-11-13T17:57:38.140Z,51.00
2022-11-13T18:00:10.026Z,50.80
2022-11-13T18:02:37.618Z,50.70
2022-11-13T18:05:04.891Z,51.10
2022-11-13T18:07:31.702Z,50.40
2022-11-13T18:10:02.961Z,50.20
2022-11-13T18:12:34.388Z,50.10
2022-11-13T18:15:03.470Z,50.10
2022-11-13T18:17:32.712Z,50.00
2022-11-13T18:20:01.932Z,49.80
2022-11-13T18:22:30.947Z,49.70
2022-11-13T18:25:00.088Z,49.40
2022-11-13T18:27:27.661Z,49.40
2022-11-13T18:29:57.322Z,49.20
2022-11-13T18:32:30.642Z,49.30
2022-11-13T18:34:58.552Z,49.20
2022-11-13T18:37:26.436Z,49.20
2022-11-13T18:39:53.113Z,49.10
2022-11-13T18:42:24.998Z,49.10
2022-11-13T18:44:57.290Z,48.90
2022-11-13T18:47:25.336Z,49.00
2022-11-13T18:49:57.261Z,49.00
2022-11-13T18:52:29.191Z,48.90
2022-11-13T18:54:55.928Z,49.20
2022-11-13T18:57:22.600Z,49.00
2022-11-13T18:59:49.463Z,49.10
2022-11-13T19:02:16.296Z,49.10
2022-11-13T19:04:43.101Z,49.30
2022-11-13T19:07:12.101Z,49.20
2022-11-13T19:09:44.825Z,49.20
2022-11-13T19:12:11.606Z,49.30
2022-11-13T19:14:38.296Z,49.20
2022-11-13T19:17:05.155Z,49.40
2022-11-13T19:19:32.922Z,49.40
2022-11-13T19:21:59.723Z,49.20
2022-11-13T19:24:26.489Z,49.30
2022-11-13T19:26:53.242Z,49.30
2022-11-13T19:29:20.369Z,49.10
2022-11-13T19:31:48.488Z,49.00
2022-11-13T19:34:15.362Z,48.60
2022-11-13T19:36:44.913Z,48.50
2022-11-13T19:39:11.915Z,48.30
2022-11-13T19:41:38.629Z,48.20
2022-11-13T19:44:06.561Z,48.30
2022-11-13T19:46:34.235Z,48.10
2022-11-13T19:49:03.052Z,48.20
2022-11-13T19:51:35.030Z,48.10
2022-11-13T19:54:04.901Z,48.10
2022-11-13T19:56:31.613Z,47.80
2022-11-13T19:58:58.350Z,47.80
2022-11-13T20:01:31.740Z,47.80
2022-11-13T20:04:03.193Z,47.70
2022-11-13T20:06:33.469Z,47.70
2022-11-13T20:09:07.238Z,47.80
2022-11-13T20:11:37.134Z,48.00
2022-11-13T20:14:03.871Z,47.90
2022-11-13T20:16:35.842Z,47.90
2022-11-13T20:19:07.202Z,48.00
2022-11-13T20:21:39.841Z,47.90
2022-11-13T20:24:12.462Z,47.70
2022-11-13T20:26:48.126Z,47.80
2022-11-13T20:29:15.858Z,47.40
2022-11-13T20:31:44.815Z,47.60
2022-11-13T20:34:11.701Z,47.80
2022-11-13T20:36:38.442Z,47.70
2022-11-13T20:39:09.334Z,47.50
2022-11-13T20:41:41.710Z,47.60
2022-11-13T20:44:09.006Z,47.50
2022-11-13T20:46:38.483Z,47.50
2022-11-13T20:49:05.336Z,47.60
2022-11-13T20:51:37.174Z,47.60
2022-11-13T20:54:06.075Z,47.60
2022-11-13T20:56:35.315Z,47.50
2022-11-13T20:59:08.634Z,47.40
2022-11-13T21:01:37.058Z,47.30
2022-11-13T21:04:06.563Z,47.30
2022-11-13T21:06:33.245Z,47.40
2022-11-13T21:09:02.333Z,47.30
2022-11-13T21:11:33.046Z,47.20
2022-11-13T21:14:02.997Z,47.10
2022-11-13T21:16:29.849Z,47.10
2022-11-13T21:19:03.071Z,47.20
2022-11-13T21:21:34.167Z,47.10
2022-11-13T21:24:00.938Z,46.90
2022-11-13T21:26:28.929Z,47.10
2022-11-13T21:28:58.765Z,47.00
2022-11-13T21:31:26.502Z,46.90
2022-11-13T21:34:01.099Z,47.00
2022-11-13T21:36:29.349Z,47.10
2022-11-13T21:38:56.841Z,47.20
2022-11-13T21:41:25.108Z,47.80
2022-11-13T21:43:59.980Z,47.20
2022-11-13T21:46:29.471Z,47.10
2022-11-13T21:49:04.518Z,47.30
2022-11-13T21:51:41.566Z,47.40
2022-11-13T21:54:08.675Z,47.60
2022-11-13T21:56:44.572Z,47.40
2022-11-13T21:59:17.460Z,47.00
2022-11-13T22:01:44.200Z,46.50
2022-11-13T22:04:16.326Z,46.60
2022-11-13T22:06:47.907Z,46.60
2022-11-13T22:09:25.532Z,46.40
2022-11-13T22:11:57.111Z,46.40
2022-11-13T22:14:29.507Z,46.30
2022-11-13T22:16:56.256Z,46.40
2022-11-13T22:19:27.675Z,46.40
2022-11-13T22:21:55.218Z,46.40
2022-11-13T22:24:21.957Z,46.20
2022-11-13T22:26:48.783Z,45.80
2022-11-13T22:29:15.762Z,45.80
2022-11-13T22:31:44.755Z,46.20
2022-11-13T22:34:11.630Z,46.50
2022-11-13T22:36:38.322Z,46.40
2022-11-13T22:39:06.035Z,46.40
2022-11-13T22:41:35.551Z,46.30
2022-11-13T22:44:07.669Z,46.50
2022-11-13T22:46:35.951Z,46.20
2022-11-13T22:49:04.867Z,45.70
2022-11-13T22:51:35.159Z,45.90
2022-11-13T22:54:04.808Z,46.00
2022-11-13T22:56:32.928Z,46.00
2022-11-13T22:59:01.348Z,45.90
2022-11-13T23:01:30.336Z,45.70
2022-11-13T23:03:59.301Z,45.60
2022-11-13T23:06:29.567Z,45.70
2022-11-13T23:08:56.718Z,45.70
2022-11-13T23:11:32.844Z,45.70
2022-11-13T23:14:02.263Z,45.40
2022-11-13T23:16:30.264Z,45.70
2022-11-13T23:18:58.292Z,45.80
2022-11-13T23:21:25.792Z,45.70
2022-11-13T23:23:53.717Z,45.70
2022-11-13T23:26:21.206Z,45.50
2022-11-13T23:28:48.042Z,45.50
2022-11-13T23:31:14.884Z,45.40
2022-11-13T23:33:42.218Z,45.40
2022-11-13T23:36:11.001Z,45.40
2022-11-13T23:38:38.258Z,45.30
2022-11-13T23:41:05.605Z,45.70
2022-11-13T23:44:02.033Z,45.60
2022-11-13T23:46:19.184Z,45.60
2022-11-13T23:48:45.895Z,46.10
2022-11-13T23:51:13.552Z,46.00
2022-11-13T23:53:40.308Z,45.70
2022-11-13T23:56:07.646Z,46.40
2022-11-13T23:58:34.803Z,46.40
